createdAt,value
2022-09-09T00:00:51.390Z,0.00
2022-09-09T00:01:51.387Z,0.00
2022-09-09T00:02:51.470Z,0.00
2022-09-09T00:03:51.423Z,0.00
2022-09-09T00:04:51.380Z,0.00
2022-09-09T00:05:51.442Z,0.00
2022-09-09T00:06:51.331Z,0.00
2022-09-09T00:07:51.333Z,0.00
2022-09-09T00:08:51.324Z,0.00
2022-09-09T00:09:51.391Z,0.00
2022-09-09T00:10:51.338Z,0.00
2022-09-09T00:11:51.285Z,0.00
2022-09-09T00:12:51.279Z,0.00
2022-09-09T00:13:51.247Z,0.00
2022-09-09T00:14:51.246Z,0.00
2022-09-09T00:15:51.338Z,0.00
2022-09-09T00:16:51.263Z,0.00
2022-09-09T00:17:51.216Z,0.00
2022-09-09T00:18:51.267Z,0.00
2022-09-09T00:19:51.219Z,0.00
2022-09-09T00:20:51.218Z,0.00
2022-09-09T00:21:51.289Z,0.00
2022-09-09T00:22:51.216Z,0.00
2022-09-09T00:23:51.239Z,0.00
2022-09-09T00:24:51.140Z,0.00
2022-09-09T00:25:52.540Z,0.00
2022-09-09T00:26:51.116Z,0.00
2022-09-09T00:27:51.131Z,0.00
2022-09-09T00:28:51.106Z,0.00
2022-09-09T00:29:51.107Z,0.00
2022-09-09T00:30:51.126Z,0.00
2022-09-09T00:31:51.075Z,0.00
2022-09-09T00:32:51.046Z,0.00
2022-09-09T00:33:51.064Z,0.00
2022-09-09T00:34:51.042Z,0.00
2022-09-09T00:35:51.021Z,0.00
2022-09-09T00:36:51.001Z,0.00
2022-09-09T00:37:51.043Z,0.00
2022-09-09T00:38:51.046Z,0.00
2022-09-09T00:39:51.093Z,0.00
2022-09-09T00:40:51.024Z,0.00
2022-09-09T00:41:50.958Z,0.00
2022-09-09T00:42:50.967Z,0.00
2022-09-09T00:43:50.972Z,0.00
2022-09-09T00:44:50.988Z,0.00
2022-09-09T00:45:50.975Z,0.00
2022-09-09T00:46:51.006Z,0.00
2022-09-09T00:47:50.910Z,0.00
2022-09-09T00:48:50.895Z,0.00
2022-09-09T00:49:50.858Z,0.00
2022-09-09T00:50:50.866Z,0.00
2022-09-09T00:51:50.859Z,0.00
2022-09-09T00:52:50.937Z,0.00
2022-09-09T00:53:50.833Z,0.00
2022-09-09T00:54:50.822Z,0.00
2022-09-09T00:55:50.818Z,0.00
2022-09-09T00:56:50.789Z,0.00
2022-09-09T00:57:50.817Z,0.00
2022-09-09T00:58:50.769Z,0.00
2022-09-09T00:59:50.754Z,0.00
2022-09-09T01:00:50.763Z,0.00
2022-09-09T01:01:50.773Z,0.00
2022-09-09T01:02:50.791Z,0.00
2022-09-09T01:03:50.718Z,0.00
2022-09-09T01:04:50.714Z,0.00
2022-09-09T01:05:50.707Z,0.00
2022-09-09T01:06:50.708Z,0.00
2022-09-09T01:07:53.033Z,0.00
2022-09-09T01:08:51.669Z,0.00
2022-09-09T01:09:50.644Z,0.00
2022-09-09T01:10:50.636Z,0.00
2022-09-09T01:11:50.647Z,0.00
2022-09-09T01:12:50.626Z,0.00
2022-09-09T01:13:50.652Z,0.00
2022-09-09T01:14:50.728Z,0.00
2022-09-09T01:15:50.634Z,0.00
2022-09-09T01:16:50.652Z,0.00
2022-09-09T01:17:50.649Z,0.00
2022-09-09T01:18:50.566Z,0.00
2022-09-09T01:19:50.542Z,0.00
2022-09-09T01:20:50.547Z,0.00
2022-09-09T01:21:50.520Z,0.00
2022-09-09T01:22:50.511Z,0.00
2022-09-09T01:23:50.524Z,0.00
2022-09-09T01:24:50.481Z,0.00
2022-09-09T01:25:50.489Z,0.00
2022-09-09T01:26:50.468Z,0.00
2022-09-09T01:27:50.467Z,0.00
2022-09-09T01:28:50.463Z,0.00
2022-09-09T01:29:50.435Z,0.00
2022-09-09T01:30:50.527Z,0.00
2022-09-09T01:31:50.423Z,0.00
2022-09-09T01:32:50.430Z,0.00
2022-09-09T01:33:50.455Z,0.00
2022-09-09T01:34:50.372Z,0.00
2022-09-09T01:35:50.371Z,0.00
2022-09-09T01:36:50.354Z,0.00
2022-09-09T01:37:50.342Z,0.00
2022-09-09T01:38:50.379Z,0.00
2022-09-09T01:39:50.361Z,0.00
2022-09-09T01:40:50.478Z,0.00
2022-09-09T01:41:50.350Z,0.00
2022-09-09T01:42:50.362Z,0.00
2022-09-09T01:43:50.340Z,0.00
2022-09-09T01:44:50.294Z,0.00
2022-09-09T01:45:50.325Z,0.00
2022-09-09T01:46:50.281Z,0.00
2022-09-09T01:47:50.265Z,0.00
2022-09-09T01:48:50.256Z,0.00
2022-09-09T01:49:50.243Z,0.00
2022-09-09T01:50:50.264Z,0.00
2022-09-09T01:51:50.193Z,0.00
2022-09-09T01:52:50.203Z,0.00
2022-09-09T01:53:50.193Z,0.00
2022-09-09T01:54:50.205Z,0.00
2022-09-09T01:55:50.169Z,0.00
2022-09-09T01:56:50.139Z,0.00
2022-09-09T01:57:50.135Z,0.00
2022-09-09T01:58:50.201Z,0.00
2022-09-09T01:59:50.127Z,0.00
2022-09-09T02:00:50.188Z,0.00
2022-09-09T02:01:50.090Z,0.00
2022-09-09T02:02:50.137Z,0.00
2022-09-09T02:03:50.132Z,0.00
2022-09-09T02:04:50.067Z,0.00
2022-09-09T02:05:50.041Z,0.00
2022-09-09T02:06:50.049Z,0.00
2022-09-09T02:07:50.118Z,0.00
2022-09-09T02:08:50.062Z,0.00
2022-09-09T02:09:50.039Z,0.00
2022-09-09T02:10:50.022Z,0.00
2022-09-09T02:11:49.981Z,0.00
2022-09-09T02:12:50.077Z,0.00
2022-09-09T02:13:50.424Z,0.00
2022-09-09T02:14:50.002Z,0.00
2022-09-09T02:15:49.957Z,0.00
2022-09-09T02:16:50.012Z,0.00
2022-09-09T02:17:49.934Z,0.00
2022-09-09T02:18:49.961Z,0.00
2022-09-09T02:19:49.952Z,0.00
2022-09-09T02:20:49.886Z,0.00
2022-09-09T02:21:49.868Z,0.00
2022-09-09T02:22:49.917Z,0.00
2022-09-09T02:23:49.950Z,0.00
2022-09-09T02:24:49.853Z,0.00
2022-09-09T02:25:49.840Z,0.00
2022-09-09T02:26:49.883Z,0.00
2022-09-09T02:27:49.816Z,0.00
2022-09-09T02:28:49.874Z,0.00
2022-09-09T02:29:49.867Z,0.00
2022-09-09T02:30:49.959Z,0.00
2022-09-09T02:31:49.849Z,0.00
2022-09-09T02:32:49.781Z,0.00
2022-09-09T02:33:49.779Z,0.00
2022-09-09T02:34:49.811Z,0.00
2022-09-09T02:35:49.725Z,0.00
2022-09-09T02:36:49.841Z,0.00
2022-09-09T02:37:49.721Z,0.00
2022-09-09T02:38:49.735Z,0.00
2022-09-09T02:39:49.726Z,0.00
2022-09-09T02:40:49.685Z,0.00
2022-09-09T02:41:49.661Z,0.00
2022-09-09T02:42:49.651Z,0.00
2022-09-09T02:43:49.653Z,0.00
2022-09-09T02:44:49.817Z,0.00
2022-09-09T02:45:49.784Z,0.00
2022-09-09T02:46:49.613Z,0.00
2022-09-09T02:47:49.611Z,0.00
2022-09-09T02:48:49.901Z,0.00
2022-09-09T02:49:49.655Z,0.00
2022-09-09T02:50:49.571Z,0.00
2022-09-09T02:51:49.556Z,0.00
2022-09-09T02:52:49.559Z,0.00
2022-09-09T02:53:49.545Z,0.00
2022-09-09T02:54:49.527Z,0.00
2022-09-09T02:55:49.562Z,0.00
2022-09-09T02:56:49.514Z,0.00
2022-09-09T02:57:49.524Z,0.00
2022-09-09T02:58:49.488Z,0.00
2022-09-09T02:59:49.533Z,0.00
2022-09-09T03:00:49.517Z,0.00
2022-09-09T03:01:49.460Z,0.00
2022-09-09T03:02:49.505Z,0.00
2022-09-09T03:03:49.441Z,0.00
2022-09-09T03:04:49.416Z,0.00
2022-09-09T03:05:49.447Z,0.00
2022-09-09T03:06:49.418Z,0.00
2022-09-09T03:07:49.486Z,0.00
2022-09-09T03:08:49.866Z,0.00
2022-09-09T03:09:49.367Z,0.00
2022-09-09T03:10:49.363Z,0.00
2022-09-09T03:11:49.402Z,0.00
2022-09-09T03:12:49.369Z,0.00
2022-09-09T03:13:49.327Z,0.00
2022-09-09T03:14:49.327Z,0.00
2022-09-09T03:15:49.327Z,0.00
2022-09-09T03:16:49.396Z,0.00
2022-09-09T03:17:49.357Z,0.00
2022-09-09T03:18:49.263Z,0.00
2022-09-09T03:19:49.293Z,0.00
2022-09-09T03:20:49.248Z,0.00
2022-09-09T03:21:49.236Z,0.00
2022-09-09T03:22:49.234Z,0.00
2022-09-09T03:23:49.244Z,0.00
2022-09-09T03:24:49.273Z,0.00
2022-09-09T03:25:49.185Z,0.00
2022-09-09T03:26:49.179Z,0.00
2022-09-09T03:27:49.199Z,0.00
2022-09-09T03:28:49.179Z,0.00
2022-09-09T03:29:49.142Z,0.00
2022-09-09T03:30:49.137Z,0.00
2022-09-09T03:31:49.252Z,0.00
2022-09-09T03:32:49.144Z,0.00
2022-09-09T03:33:49.115Z,0.00
2022-09-09T03:34:49.097Z,0.00
2022-09-09T03:35:49.100Z,0.00
2022-09-09T03:36:49.072Z,0.00
2022-09-09T03:37:49.058Z,0.00
2022-09-09T03:38:49.081Z,0.00
2022-09-09T03:39:49.173Z,0.00
2022-09-09T03:40:49.035Z,0.00
2022-09-09T03:41:49.009Z,0.00
2022-09-09T03:42:49.000Z,0.00
2022-09-09T03:43:49.011Z,0.00
2022-09-09T03:44:48.983Z,0.00
2022-09-09T03:45:49.047Z,0.00
2022-09-09T03:46:48.967Z,0.00
2022-09-09T03:47:48.964Z,0.00
2022-09-09T03:48:49.004Z,0.00
2022-09-09T03:49:48.998Z,0.00
2022-09-09T03:50:49.015Z,0.00
2022-09-09T03:51:48.957Z,0.00
2022-09-09T03:52:48.937Z,0.00
2022-09-09T03:53:48.937Z,0.00
2022-09-09T03:54:48.900Z,0.00
2022-09-09T03:55:48.920Z,0.00
2022-09-09T03:56:48.849Z,0.00
2022-09-09T03:57:48.843Z,0.00
2022-09-09T03:58:48.846Z,0.00
2022-09-09T03:59:48.868Z,0.00
2022-09-09T04:00:48.891Z,0.00
2022-09-09T04:01:48.826Z,0.00
2022-09-09T04:02:48.869Z,0.00
2022-09-09T04:03:48.805Z,0.00
2022-09-09T04:04:48.826Z,0.00
2022-09-09T04:05:48.797Z,0.00
2022-09-09T04:06:48.792Z,0.00
2022-09-09T04:07:48.793Z,0.00
2022-09-09T04:08:48.820Z,0.00
2022-09-09T04:09:48.726Z,0.00
2022-09-09T04:10:48.764Z,0.00
2022-09-09T04:11:48.793Z,0.00
2022-09-09T04:12:49.586Z,0.00
2022-09-09T04:13:48.766Z,0.00
2022-09-09T04:14:48.753Z,0.00
2022-09-09T04:15:48.721Z,0.00
2022-09-09T04:16:48.740Z,0.00
2022-09-09T04:17:48.662Z,0.00
2022-09-09T04:18:48.683Z,0.00
2022-09-09T04:19:48.612Z,0.00
2022-09-09T04:20:48.640Z,0.00
2022-09-09T04:21:48.601Z,0.00
2022-09-09T04:22:48.607Z,0.00
2022-09-09T04:23:48.603Z,0.00
2022-09-09T04:24:49.008Z,0.00
2022-09-09T04:25:48.619Z,0.00
2022-09-09T04:26:48.738Z,4.00
2022-09-09T04:27:48.601Z,4.00
2022-09-09T04:28:48.706Z,4.00
2022-09-09T04:29:48.499Z,4.00
2022-09-09T04:30:48.538Z,4.00
2022-09-09T04:31:48.592Z,8.00
2022-09-09T04:32:48.465Z,4.00
2022-09-09T04:33:48.493Z,8.00
2022-09-09T04:34:48.448Z,8.00
2022-09-09T04:35:48.450Z,12.00
2022-09-09T04:36:48.413Z,12.00
2022-09-09T04:37:48.416Z,16.00
2022-09-09T04:38:48.773Z,20.00
2022-09-09T04:39:48.433Z,20.00
2022-09-09T04:40:48.406Z,24.00
2022-09-09T04:41:48.368Z,28.00
2022-09-09T04:42:48.560Z,32.00
2022-09-09T04:43:48.378Z,36.00
2022-09-09T04:44:48.334Z,40.00
2022-09-09T04:45:48.508Z,44.00
2022-09-09T04:46:48.307Z,48.00
2022-09-09T04:47:48.297Z,52.00
2022-09-09T04:48:48.306Z,52.00
2022-09-09T04:49:48.377Z,56.00
2022-09-09T04:50:48.430Z,60.00
2022-09-09T04:51:48.259Z,64.00
2022-09-09T04:52:48.259Z,72.00
2022-09-09T04:53:48.261Z,80.00
2022-09-09T04:54:48.238Z,88.00
2022-09-09T04:55:48.257Z,104.00
2022-09-09T04:56:48.215Z,124.00
2022-09-09T04:57:48.209Z,140.00
2022-09-09T04:58:48.240Z,164.00
2022-09-09T04:59:48.170Z,180.00
2022-09-09T05:00:48.203Z,208.00
2022-09-09T05:01:48.214Z,232.00
2022-09-09T05:02:48.154Z,256.00
2022-09-09T05:03:48.170Z,284.00
2022-09-09T05:04:48.133Z,316.00
2022-09-09T05:05:48.102Z,344.00
2022-09-09T05:06:48.174Z,372.00
2022-09-09T05:07:48.099Z,400.00
2022-09-09T05:08:48.110Z,436.00
2022-09-09T05:09:48.053Z,484.00
2022-09-09T05:10:48.061Z,544.00
2022-09-09T05:11:48.186Z,604.00
2022-09-09T05:12:48.064Z,660.00
2022-09-09T05:13:48.031Z,736.00
2022-09-09T05:14:48.008Z,804.00
2022-09-09T05:15:48.042Z,884.00
2022-09-09T05:16:48.011Z,948.00
2022-09-09T05:17:47.988Z,948.00
2022-09-09T05:18:47.969Z,912.00
2022-09-09T05:19:47.996Z,888.00
2022-09-09T05:20:47.958Z,916.00
2022-09-09T05:21:47.951Z,924.00
2022-09-09T05:22:47.969Z,876.00
2022-09-09T05:23:47.926Z,864.00
2022-09-09T05:24:47.977Z,884.00
2022-09-09T05:25:47.945Z,860.00
2022-09-09T05:26:48.048Z,816.00
2022-09-09T05:27:47.971Z,808.00
2022-09-09T05:28:47.911Z,824.00
2022-09-09T05:29:47.853Z,856.00
2022-09-09T05:30:47.845Z,944.00
2022-09-09T05:31:47.942Z,1052.00
2022-09-09T05:32:47.856Z,1088.00
2022-09-09T05:33:47.828Z,1040.00
2022-09-09T05:34:47.812Z,1020.00
2022-09-09T05:35:47.785Z,1116.00
2022-09-09T05:36:47.829Z,1244.00
2022-09-09T05:37:47.776Z,1352.00
2022-09-09T05:38:47.816Z,1356.00
2022-09-09T05:39:47.804Z,1272.00
2022-09-09T05:40:47.735Z,1292.00
2022-09-09T05:41:47.744Z,1396.00
2022-09-09T05:42:47.698Z,1508.00
2022-09-09T05:43:47.784Z,1604.00
2022-09-09T05:44:47.712Z,1696.00
2022-09-09T05:45:47.698Z,1780.00
2022-09-09T05:46:47.746Z,1852.00
2022-09-09T05:47:47.641Z,1916.00
2022-09-09T05:48:47.713Z,2024.00
2022-09-09T05:49:47.706Z,2068.00
2022-09-09T05:50:47.631Z,2200.00
2022-09-09T05:51:47.723Z,2320.00
2022-09-09T05:52:47.657Z,2156.00
2022-09-09T05:53:47.628Z,1948.00
2022-09-09T05:54:47.633Z,1808.00
2022-09-09T05:55:47.594Z,1660.00
2022-09-09T05:56:51.492Z,1628.00
2022-09-09T05:57:47.597Z,1976.00
2022-09-09T05:58:47.548Z,2352.00
2022-09-09T05:59:47.642Z,2356.00
2022-09-09T06:00:47.551Z,2280.00
2022-09-09T06:01:47.652Z,2224.00
2022-09-09T06:02:47.638Z,2152.00
2022-09-09T06:03:47.555Z,1996.00
2022-09-09T06:04:47.504Z,1832.00
2022-09-09T06:05:47.450Z,1888.00
2022-09-09T06:06:47.456Z,2044.00
2022-09-09T06:07:47.463Z,2016.00
2022-09-09T06:08:47.423Z,1908.00
2022-09-09T06:09:47.415Z,2220.00
2022-09-09T06:10:47.390Z,2700.00
2022-09-09T06:11:47.401Z,2948.00
2022-09-09T06:12:47.567Z,3132.00
2022-09-09T06:13:47.498Z,3452.00
2022-09-09T06:14:47.349Z,3812.00
2022-09-09T06:15:47.412Z,4384.00
2022-09-09T06:16:47.337Z,4756.00
2022-09-09T06:17:47.427Z,4948.00
2022-09-09T06:18:47.377Z,5248.00
2022-09-09T06:19:47.334Z,5460.00
2022-09-09T06:20:47.290Z,5880.00
2022-09-09T06:21:47.288Z,6128.00
2022-09-09T06:22:47.297Z,6608.00
2022-09-09T06:23:47.263Z,7276.00
2022-09-09T06:24:47.335Z,8068.00
2022-09-09T06:25:47.269Z,8548.00
2022-09-09T06:26:47.221Z,8324.00
2022-09-09T06:27:47.269Z,8340.00
2022-09-09T06:28:47.210Z,10348.00
2022-09-09T06:29:47.295Z,8716.00
2022-09-09T06:30:47.179Z,8212.00
2022-09-09T06:31:47.252Z,7992.00
2022-09-09T06:32:47.182Z,7904.00
2022-09-09T06:33:47.145Z,8920.00
2022-09-09T06:34:47.173Z,7948.00
2022-09-09T06:35:47.157Z,8028.00
2022-09-09T06:36:47.144Z,8168.00
2022-09-09T06:37:47.128Z,9312.00
2022-09-09T06:38:47.100Z,10292.00
2022-09-09T06:39:47.102Z,10344.00
2022-09-09T06:40:47.092Z,10732.00
2022-09-09T06:41:47.083Z,10992.00
2022-09-09T06:42:47.067Z,9920.00
2022-09-09T06:43:47.107Z,14544.00
2022-09-09T06:44:47.027Z,8716.00
2022-09-09T06:45:47.050Z,7708.00
2022-09-09T06:46:47.110Z,5608.00
2022-09-09T06:47:47.037Z,5124.00
2022-09-09T06:48:46.986Z,4788.00
2022-09-09T06:49:48.426Z,4384.00
2022-09-09T06:50:46.973Z,4044.00
2022-09-09T06:51:46.971Z,3916.00
2022-09-09T06:52:46.998Z,4024.00
2022-09-09T06:53:46.950Z,4820.00
2022-09-09T06:54:46.951Z,11408.00
2022-09-09T06:55:46.984Z,4468.00
2022-09-09T06:56:46.974Z,4796.00
2022-09-09T06:57:46.979Z,4776.00
2022-09-09T06:58:46.869Z,4856.00
2022-09-09T06:59:46.872Z,5488.00
2022-09-09T07:00:46.946Z,10428.00
2022-09-09T07:01:46.889Z,19552.00
2022-09-09T07:02:46.899Z,16096.00
2022-09-09T07:03:46.839Z,16160.00
2022-09-09T07:04:46.814Z,10836.00
2022-09-09T07:05:46.808Z,8508.00
2022-09-09T07:06:46.794Z,20832.00
2022-09-09T07:07:46.800Z,8308.00
2022-09-09T07:08:55.976Z,11648.00
2022-09-09T07:09:47.762Z,6048.00
2022-09-09T07:10:46.767Z,6240.00
2022-09-09T07:11:46.782Z,8828.00
2022-09-09T07:12:46.745Z,7036.00
2022-09-09T07:13:46.723Z,8684.00
2022-09-09T07:14:46.712Z,10348.00
2022-09-09T07:15:46.751Z,9832.00
2022-09-09T07:16:46.692Z,9508.00
2022-09-09T07:17:46.782Z,13292.00
2022-09-09T07:18:46.664Z,12656.00
2022-09-09T07:19:46.690Z,20416.00
2022-09-09T07:20:46.641Z,14720.00
2022-09-09T07:21:46.660Z,13208.00
2022-09-09T07:22:46.724Z,13268.00
2022-09-09T07:23:46.784Z,12904.00
2022-09-09T07:24:46.616Z,14384.00
2022-09-09T07:25:46.618Z,15040.00
2022-09-09T07:26:46.612Z,17024.00
2022-09-09T07:27:46.644Z,16416.00
2022-09-09T07:28:46.635Z,15328.00
2022-09-09T07:29:46.580Z,14464.00
2022-09-09T07:30:46.566Z,13572.00
2022-09-09T07:31:46.742Z,14532.00
2022-09-09T07:32:46.539Z,14200.00
2022-09-09T07:33:46.501Z,15132.00
2022-09-09T07:34:46.584Z,17984.00
2022-09-09T07:35:46.542Z,17536.00
2022-09-09T07:36:46.459Z,15628.00
2022-09-09T07:37:50.688Z,14328.00
2022-09-09T07:38:46.436Z,13272.00
2022-09-09T07:39:46.805Z,13312.00
2022-09-09T07:40:46.585Z,14280.00
2022-09-09T07:41:46.415Z,15436.00
2022-09-09T07:42:46.423Z,14888.00
2022-09-09T07:43:46.504Z,13828.00
2022-09-09T07:44:46.381Z,12820.00
2022-09-09T07:45:46.480Z,12096.00
2022-09-09T07:46:46.731Z,11452.00
2022-09-09T07:47:46.424Z,12004.00
2022-09-09T07:48:46.394Z,11168.00
2022-09-09T07:49:46.346Z,11672.00
2022-09-09T07:50:46.381Z,13380.00
2022-09-09T07:51:46.404Z,12268.00
2022-09-09T07:52:46.725Z,11104.00
2022-09-09T07:53:46.294Z,10712.00
2022-09-09T07:54:46.312Z,11036.00
2022-09-09T07:55:46.300Z,11424.00
2022-09-09T07:56:46.297Z,11352.00
2022-09-09T07:57:46.299Z,11540.00
2022-09-09T07:58:46.245Z,12140.00
2022-09-09T07:59:46.248Z,12396.00
2022-09-09T08:00:46.215Z,12432.00
2022-09-09T08:01:46.282Z,12820.00
2022-09-09T08:02:46.273Z,13464.00
2022-09-09T08:03:46.176Z,14268.00
2022-09-09T08:04:46.506Z,14728.00
2022-09-09T08:05:46.174Z,14812.00
2022-09-09T08:06:46.174Z,14892.00
2022-09-09T08:07:46.199Z,15248.00
2022-09-09T08:08:46.181Z,15064.00
2022-09-09T08:09:46.125Z,16576.00
2022-09-09T08:10:46.159Z,18848.00
2022-09-09T08:11:46.094Z,20320.00
2022-09-09T08:13:01.419Z,19040.00
2022-09-09T08:13:50.854Z,17088.00
2022-09-09T08:14:47.083Z,15228.00
2022-09-09T08:15:46.197Z,15004.00
2022-09-09T08:16:46.103Z,15520.00
2022-09-09T08:17:46.611Z,15188.00
2022-09-09T08:18:46.057Z,14824.00
2022-09-09T08:19:46.004Z,13488.00
2022-09-09T08:20:46.043Z,11260.00
2022-09-09T08:21:45.995Z,10356.00
2022-09-09T08:22:46.036Z,10328.00
2022-09-09T08:23:45.981Z,7652.00
2022-09-09T08:24:46.020Z,9240.00
2022-09-09T08:25:45.976Z,8532.00
2022-09-09T08:26:45.967Z,6044.00
2022-09-09T08:27:45.958Z,7116.00
2022-09-09T08:28:45.964Z,7616.00
2022-09-09T08:29:45.964Z,7600.00
2022-09-09T08:30:46.074Z,7704.00
2022-09-09T08:31:45.869Z,7728.00
2022-09-09T08:32:46.572Z,8008.00
2022-09-09T08:33:45.863Z,7996.00
2022-09-09T08:34:46.600Z,11152.00
2022-09-09T08:35:49.635Z,8240.00
2022-09-09T08:36:45.830Z,8120.00
2022-09-09T08:37:45.844Z,8316.00
2022-09-09T08:38:45.801Z,8672.00
2022-09-09T08:39:45.857Z,9372.00
2022-09-09T08:40:45.812Z,8624.00
2022-09-09T08:41:45.838Z,20.00
2022-09-09T08:42:45.811Z,8072.00
2022-09-09T08:43:45.844Z,16192.00
2022-09-09T08:44:48.929Z,9488.00
2022-09-09T08:45:45.821Z,9928.00
2022-09-09T08:46:45.850Z,10432.00
2022-09-09T08:47:45.783Z,11292.00
2022-09-09T08:48:45.800Z,22880.00
2022-09-09T08:49:45.726Z,24992.00
2022-09-09T08:50:45.729Z,49408.00
2022-09-09T08:51:45.730Z,53760.00
2022-09-09T08:52:45.763Z,44000.00
2022-09-09T08:53:45.697Z,36288.00
2022-09-09T08:54:52.171Z,56960.00
2022-09-09T08:55:46.659Z,21280.00
2022-09-09T08:56:45.610Z,40288.00
2022-09-09T08:57:45.607Z,10084.00
2022-09-09T08:58:45.608Z,17632.00
2022-09-09T08:59:45.618Z,52832.00
2022-09-09T09:00:45.596Z,35616.00
2022-09-09T09:01:45.661Z,12316.00
2022-09-09T09:02:45.551Z,45952.00
2022-09-09T09:03:45.531Z,57888.00
2022-09-09T09:04:45.634Z,60544.00
2022-09-09T09:05:45.577Z,67840.00
2022-09-09T09:06:45.552Z,46240.00
2022-09-09T09:07:45.586Z,48576.00
2022-09-09T09:08:45.528Z,77888.00
2022-09-09T09:09:45.552Z,80800.00
2022-09-09T09:10:45.444Z,81600.00
2022-09-09T09:11:45.583Z,83520.00
2022-09-09T09:12:45.512Z,78336.00
2022-09-09T09:13:45.523Z,20608.00
2022-09-09T09:14:45.410Z,23616.00
2022-09-09T09:15:45.425Z,24256.00
2022-09-09T09:16:45.380Z,24256.00
2022-09-09T09:17:45.433Z,24800.00
2022-09-09T09:18:45.373Z,20896.00
2022-09-09T09:19:45.421Z,20800.00
2022-09-09T09:20:45.346Z,17792.00
2022-09-09T09:21:45.378Z,17984.00
2022-09-09T09:22:45.360Z,19424.00
2022-09-09T09:23:45.365Z,19808.00
2022-09-09T09:24:45.294Z,18464.00
2022-09-09T09:25:45.381Z,18208.00
2022-09-09T09:26:45.361Z,18464.00
2022-09-09T09:27:45.354Z,18432.00
2022-09-09T09:28:45.357Z,21440.00
2022-09-09T09:30:10.529Z,26144.00
2022-09-09T09:30:46.274Z,23904.00
2022-09-09T09:31:45.284Z,22560.00
2022-09-09T09:32:45.287Z,23328.00
2022-09-09T09:33:45.311Z,24288.00
2022-09-09T09:34:45.317Z,24352.00
2022-09-09T09:35:45.240Z,24480.00
2022-09-09T09:36:45.237Z,23936.00
2022-09-09T09:40:46.185Z,33888.00
2022-09-09T09:41:45.205Z,33888.00
2022-09-09T09:42:45.139Z,16256.00
2022-09-09T09:43:45.236Z,12788.00
2022-09-09T09:44:45.223Z,15448.00
2022-09-09T09:45:55.312Z,17568.00
2022-09-09T09:46:46.220Z,56992.00
2022-09-09T09:47:45.158Z,14912.00
2022-09-09T09:48:45.046Z,14448.00
2022-09-09T09:49:45.053Z,11944.00
2022-09-09T09:50:45.042Z,12376.00
2022-09-09T09:51:45.098Z,18176.00
2022-09-09T09:52:45.220Z,11408.00
2022-09-09T09:53:45.032Z,8364.00
2022-09-09T09:54:44.992Z,82368.00
2022-09-09T09:55:45.043Z,82112.00
2022-09-09T09:56:44.957Z,41376.00
2022-09-09T09:57:45.092Z,33536.00
2022-09-09T09:58:44.973Z,37312.00
2022-09-09T09:59:44.954Z,43040.00
2022-09-09T10:00:44.948Z,70016.00
2022-09-09T10:01:44.983Z,75456.00
2022-09-09T10:02:44.912Z,10288.00
2022-09-09T10:03:44.916Z,78240.00
2022-09-09T10:04:44.979Z,71488.00
2022-09-09T10:05:44.874Z,76256.00
2022-09-09T10:06:44.898Z,80800.00
2022-09-09T10:07:45.022Z,12148.00
2022-09-09T10:08:45.294Z,40000.00
2022-09-09T10:09:44.991Z,30304.00
2022-09-09T10:10:47.943Z,18016.00
2022-09-09T10:11:44.936Z,20896.00
2022-09-09T10:12:45.190Z,49440.00
2022-09-09T10:13:45.074Z,77152.00
2022-09-09T10:14:44.787Z,87648.00
2022-09-09T10:15:44.905Z,18976.00
2022-09-09T10:16:44.782Z,88288.00
2022-09-09T10:17:44.748Z,27072.00
2022-09-09T10:18:44.777Z,18272.00
2022-09-09T10:19:44.723Z,92832.00
2022-09-09T10:20:44.722Z,85312.00
2022-09-09T10:21:44.770Z,18656.00
2022-09-09T10:22:44.728Z,14920.00
2022-09-09T10:23:44.667Z,11864.00
2022-09-09T10:24:44.769Z,10596.00
2022-09-09T10:25:44.661Z,8704.00
2022-09-09T10:26:44.780Z,8116.00
2022-09-09T10:27:44.645Z,8572.00
2022-09-09T10:28:44.630Z,8920.00
2022-09-09T10:29:44.677Z,8996.00
2022-09-09T10:30:44.648Z,9144.00
2022-09-09T10:31:44.613Z,8892.00
2022-09-09T10:32:44.638Z,8948.00
2022-09-09T10:33:44.611Z,9952.00
2022-09-09T10:34:44.569Z,17952.00
2022-09-09T10:35:44.587Z,67360.00
2022-09-09T10:36:44.758Z,29152.00
2022-09-09T10:37:44.555Z,23264.00
2022-09-09T10:38:44.589Z,15216.00
2022-09-09T10:39:44.575Z,12660.00
2022-09-09T10:40:44.540Z,15968.00
2022-09-09T10:41:44.478Z,44480.00
2022-09-09T10:42:44.501Z,33728.00
2022-09-09T10:43:44.527Z,19392.00
2022-09-09T10:44:44.466Z,15424.00
2022-09-09T10:45:44.547Z,14704.00
2022-09-09T10:46:44.438Z,13920.00
2022-09-09T10:47:44.436Z,14616.00
2022-09-09T10:48:44.418Z,15340.00
2022-09-09T10:49:44.431Z,16608.00
2022-09-09T10:51:03.486Z,17760.00
2022-09-09T10:51:45.451Z,19360.00
2022-09-09T10:52:44.367Z,22144.00
2022-09-09T10:53:44.390Z,25632.00
2022-09-09T10:54:44.360Z,29568.00
2022-09-09T10:55:44.348Z,40736.00
2022-09-09T10:56:44.338Z,89344.00
2022-09-09T10:57:44.312Z,58976.00
2022-09-09T10:58:44.305Z,36064.00
2022-09-09T10:59:44.334Z,35584.00
2022-09-09T11:00:44.321Z,31328.00
2022-09-09T11:01:44.349Z,42112.00
2022-09-09T11:02:44.338Z,34240.00
2022-09-09T11:03:44.274Z,49888.00
2022-09-09T11:04:44.240Z,61056.00
2022-09-09T11:05:44.232Z,54368.00
2022-09-09T11:06:44.314Z,35328.00
2022-09-09T11:07:44.286Z,36544.00
2022-09-09T11:08:44.200Z,33504.00
2022-09-09T11:09:44.175Z,39360.00
2022-09-09T11:10:44.177Z,37568.00
2022-09-09T11:11:44.177Z,59296.00
2022-09-09T11:12:44.194Z,74720.00
2022-09-09T11:13:44.145Z,33440.00
2022-09-09T11:14:44.142Z,35168.00
2022-09-09T11:15:44.440Z,29824.00
2022-09-09T11:16:44.215Z,30432.00
2022-09-09T11:17:44.161Z,31872.00
2022-09-09T11:18:44.095Z,30240.00
2022-09-09T11:19:44.090Z,27072.00
2022-09-09T11:20:44.121Z,25344.00
2022-09-09T11:21:44.088Z,24064.00
2022-09-09T11:22:44.161Z,23072.00
2022-09-09T11:23:44.074Z,23264.00
2022-09-09T11:24:44.025Z,21952.00
2022-09-09T11:25:44.033Z,21504.00
2022-09-09T11:26:44.060Z,21952.00
2022-09-09T11:27:44.052Z,23680.00
2022-09-09T11:28:44.085Z,26112.00
2022-09-09T11:29:44.008Z,27392.00
2022-09-09T11:30:56.050Z,26848.00
2022-09-09T11:31:45.125Z,25504.00
2022-09-09T11:32:44.014Z,24992.00
2022-09-09T11:33:43.996Z,27104.00
2022-09-09T11:34:43.948Z,28288.00
2022-09-09T11:35:44.012Z,31200.00
2022-09-09T11:36:43.983Z,32768.00
2022-09-09T11:37:43.908Z,49760.00
2022-09-09T11:38:43.882Z,109408.00
2022-09-09T11:39:43.912Z,109824.00
2022-09-09T11:40:43.905Z,110304.00
2022-09-09T11:41:43.863Z,112640.00
2022-09-09T11:42:43.867Z,105920.00
2022-09-09T11:43:43.885Z,98336.00
2022-09-09T11:44:43.834Z,92992.00
2022-09-09T11:45:43.842Z,90048.00
2022-09-09T11:46:43.838Z,87296.00
2022-09-09T11:47:43.868Z,86560.00
2022-09-09T11:48:43.787Z,87008.00
2022-09-09T11:49:43.774Z,16768.00
2022-09-09T11:50:43.776Z,17760.00
2022-09-09T11:51:43.781Z,21792.00
2022-09-09T11:52:43.785Z,27968.00
2022-09-09T11:53:43.726Z,27680.00
2022-09-09T11:54:43.746Z,27264.00
2022-09-09T11:55:43.712Z,40256.00
2022-09-09T11:56:43.706Z,38176.00
2022-09-09T11:57:48.937Z,36416.00
2022-09-09T11:58:44.677Z,71584.00
2022-09-09T11:59:43.666Z,74144.00
2022-09-09T12:00:43.824Z,18272.00
2022-09-09T12:01:43.677Z,18016.00
2022-09-09T12:02:43.761Z,20320.00
2022-09-09T12:03:43.780Z,74400.00
2022-09-09T12:04:43.743Z,101824.00
2022-09-09T12:05:43.597Z,27584.00
2022-09-09T12:06:43.863Z,39424.00
2022-09-09T12:07:43.610Z,31872.00
2022-09-09T12:08:43.628Z,21568.00
2022-09-09T12:09:43.576Z,20704.00
2022-09-09T12:10:43.549Z,29472.00
2022-09-09T12:11:43.583Z,68960.00
2022-09-09T12:12:44.269Z,37600.00
2022-09-09T12:13:43.630Z,98688.00
2022-09-09T12:14:43.502Z,18080.00
2022-09-09T12:15:43.483Z,18464.00
2022-09-09T12:16:43.523Z,21472.00
2022-09-09T12:17:43.482Z,24448.00
2022-09-09T12:18:43.543Z,56128.00
2022-09-09T12:19:43.470Z,26496.00
2022-09-09T12:20:43.461Z,38624.00
2022-09-09T12:21:43.458Z,26880.00
2022-09-09T12:22:43.450Z,28128.00
2022-09-09T12:23:43.453Z,29600.00
2022-09-09T12:24:43.519Z,65184.00
2022-09-09T12:25:43.397Z,96960.00
2022-09-09T12:26:43.380Z,105792.00
2022-09-09T12:27:43.402Z,103232.00